createdAt,value
2022-08-14T00:02:27.290Z,67.54
2022-08-14T00:04:55.803Z,67.31
2022-08-14T00:07:23.586Z,67.63
2022-08-14T00:10:02.578Z,67.67
2022-08-14T00:12:42.163Z,67.92
2022-08-14T00:15:43.435Z,67.86
2022-08-14T00:19:05.341Z,67.73
2022-08-14T00:21:05.107Z,66.99
2022-08-14T00:23:39.798Z,67.29
2022-08-14T00:26:08.322Z,67.65
2022-08-14T00:28:50.235Z,69.07
2022-08-14T00:31:19.938Z,68.76
2022-08-14T00:34:36.577Z,68.74
2022-08-14T00:36:51.346Z,69.11
2022-08-14T00:39:18.952Z,69.09
2022-08-14T00:41:48.583Z,69.18
2022-08-14T00:44:21.542Z,68.25
2022-08-14T00:47:02.828Z,68.42
2022-08-14T00:49:38.155Z,67.40
2022-08-14T00:52:18.421Z,68.24
2022-08-14T00:54:57.956Z,68.21
2022-08-14T00:57:32.058Z,67.48
2022-08-14T01:00:00.735Z,67.44
2022-08-14T01:02:31.952Z,68.29
2022-08-14T01:05:01.551Z,68.27
2022-08-14T01:07:47.400Z,69.06
2022-08-14T01:10:18.825Z,69.00
2022-08-14T01:12:48.850Z,68.89
2022-08-14T01:15:21.490Z,68.92
2022-08-14T01:18:27.925Z,68.34
2022-08-14T01:21:13.394Z,67.84
2022-08-14T01:23:46.940Z,67.96
2022-08-14T01:26:34.443Z,68.30
2022-08-14T01:29:06.548Z,67.80
2022-08-14T01:31:41.930Z,67.36
2022-08-14T01:35:18.446Z,67.67
2022-08-14T01:36:59.934Z,67.62
2022-08-14T01:39:32.282Z,68.05
2022-08-14T01:42:01.811Z,67.73
2022-08-14T01:44:34.021Z,69.10
2022-08-14T01:47:21.965Z,68.73
2022-08-14T01:50:01.446Z,67.91
2022-08-14T01:52:59.739Z,67.92
2022-08-14T01:55:32.321Z,68.01
2022-08-14T01:58:20.092Z,69.40
2022-08-14T02:00:55.545Z,68.88
2022-08-14T02:03:29.543Z,69.36
2022-08-14T02:06:04.098Z,69.56
2022-08-14T02:08:53.292Z,68.46
2022-08-14T02:11:24.351Z,67.69
2022-08-14T02:14:08.406Z,69.20
2022-08-14T02:16:41.920Z,69.68
2022-08-14T02:19:14.897Z,68.44
2022-08-14T02:21:49.031Z,68.73
2022-08-14T02:24:39.859Z,69.59
2022-08-14T02:28:23.110Z,69.00
2022-08-14T02:30:02.064Z,69.33
2022-08-14T02:32:36.165Z,69.09
2022-08-14T02:35:21.833Z,69.46
2022-08-14T02:37:50.875Z,69.24
2022-08-14T02:40:20.613Z,68.39
2022-08-14T02:43:02.379Z,69.09
2022-08-14T02:45:37.961Z,69.02
2022-08-14T02:49:01.097Z,69.38
2022-08-14T02:51:01.029Z,69.22
2022-08-14T02:53:31.103Z,68.88
2022-08-14T02:56:02.742Z,68.77
2022-08-14T02:58:34.465Z,68.50
2022-08-14T03:01:09.190Z,68.63
2022-08-14T03:03:38.760Z,67.91
2022-08-14T03:06:10.460Z,68.02
2022-08-14T03:08:39.558Z,68.29
2022-08-14T03:11:15.359Z,68.21
2022-08-14T03:13:49.473Z,68.24
2022-08-14T03:16:26.827Z,67.99
2022-08-14T03:19:00.769Z,67.76
2022-08-14T03:21:33.394Z,67.65
2022-08-14T03:24:16.674Z,67.72
2022-08-14T03:26:57.281Z,68.21
2022-08-14T03:29:29.617Z,68.86
2022-08-14T03:31:59.431Z,68.82
2022-08-14T03:34:48.056Z,68.62
2022-08-14T03:37:39.353Z,68.78
2022-08-14T03:40:03.183Z,69.12
2022-08-14T03:42:35.745Z,68.47
2022-08-14T03:45:25.665Z,68.79
2022-08-14T03:47:58.864Z,69.34
2022-08-14T03:50:31.499Z,69.10
2022-08-14T03:53:02.176Z,68.75
2022-08-14T03:55:30.863Z,68.57
2022-08-14T03:58:00.690Z,68.50
2022-08-14T04:00:43.108Z,68.41
2022-08-14T04:03:23.636Z,68.53
2022-08-14T04:05:52.101Z,68.55
2022-08-14T04:08:29.217Z,68.99
2022-08-14T04:11:01.107Z,69.17
2022-08-14T04:13:34.285Z,69.48
2022-08-14T04:16:06.874Z,69.63
2022-08-14T04:18:46.579Z,69.40
2022-08-14T04:21:16.398Z,69.64
2022-08-14T04:23:49.202Z,70.20
2022-08-14T04:26:42.945Z,70.03
2022-08-14T04:29:16.308Z,70.00
2022-08-14T04:32:58.864Z,70.11
2022-08-14T04:34:36.482Z,70.36
2022-08-14T04:37:25.416Z,70.11
2022-08-14T04:40:15.108Z,70.53
2022-08-14T04:43:01.841Z,70.64
2022-08-14T04:45:41.996Z,70.66
2022-08-14T04:48:39.928Z,70.43
2022-08-14T04:51:08.655Z,70.94
2022-08-14T04:53:41.120Z,70.80
2022-08-14T04:56:31.354Z,70.77
2022-08-14T04:59:09.489Z,70.65
2022-08-14T05:01:48.983Z,70.93
2022-08-14T05:04:20.878Z,71.06
2022-08-14T05:06:55.169Z,70.62
2022-08-14T05:09:28.911Z,71.01
2022-08-14T05:12:33.932Z,71.40
2022-08-14T05:14:55.076Z,72.28
2022-08-14T05:17:28.680Z,71.93
2022-08-14T05:21:55.655Z,72.19
2022-08-14T05:22:56.055Z,72.43
2022-08-14T05:25:23.911Z,72.56
2022-08-14T05:27:52.909Z,71.47
2022-08-14T05:30:25.776Z,69.69
2022-08-14T05:32:55.839Z,70.00
2022-08-14T05:35:23.182Z,71.50
2022-08-14T05:37:51.175Z,72.61
2022-08-14T05:40:18.634Z,72.34
2022-08-14T05:42:46.502Z,72.58
2022-08-14T05:45:20.941Z,72.31
2022-08-14T05:47:50.947Z,71.47
2022-08-14T05:50:19.897Z,70.38
2022-08-14T05:52:51.100Z,70.09
2022-08-14T05:55:22.029Z,66.81
2022-08-14T05:57:57.837Z,68.38
2022-08-14T06:00:38.750Z,67.84
2022-08-14T06:03:14.942Z,68.58
2022-08-14T06:05:47.573Z,68.56
2022-08-14T06:08:35.830Z,67.78
2022-08-14T06:11:09.338Z,67.92
2022-08-14T06:13:44.690Z,69.80
2022-08-14T06:16:17.810Z,69.52
2022-08-14T06:18:52.332Z,70.14
2022-08-14T06:21:23.118Z,69.61
2022-08-14T06:23:51.648Z,68.95
2022-08-14T06:26:22.122Z,68.18
2022-08-14T06:28:52.781Z,66.19
2022-08-14T06:31:22.599Z,66.13
2022-08-14T06:35:02.676Z,65.83
2022-08-14T06:36:39.789Z,65.67
2022-08-14T06:39:10.051Z,65.78
2022-08-14T06:41:59.322Z,64.50
2022-08-14T06:44:30.668Z,63.83
2022-08-14T06:47:02.879Z,67.30
2022-08-14T06:49:42.698Z,68.65
2022-08-14T06:52:16.245Z,68.82
2022-08-14T06:54:46.322Z,66.69
2022-08-14T06:57:13.777Z,64.54
2022-08-14T06:59:42.247Z,65.87
2022-08-14T07:02:29.358Z,66.48
2022-08-14T07:05:22.974Z,64.09
2022-08-14T07:07:51.292Z,64.29
2022-08-14T07:10:19.100Z,64.17
2022-08-14T07:13:01.941Z,64.61
2022-08-14T07:15:39.574Z,63.66
2022-08-14T07:18:10.517Z,64.93
2022-08-14T07:20:39.968Z,65.48
2022-08-14T07:23:19.823Z,63.96
2022-08-14T07:25:51.685Z,64.75
2022-08-14T07:28:25.757Z,66.80
2022-08-14T07:31:04.698Z,67.17
2022-08-14T07:33:37.153Z,68.57
2022-08-14T07:36:27.501Z,70.01
2022-08-14T07:39:00.799Z,70.49
2022-08-14T07:41:33.890Z,69.25
2022-08-14T07:44:28.747Z,69.18
2022-08-14T07:46:52.173Z,68.28
2022-08-14T07:49:21.473Z,68.09
2022-08-14T07:51:52.458Z,67.06
2022-08-14T07:54:23.171Z,66.61
2022-08-14T07:57:12.035Z,66.34
2022-08-14T07:59:46.972Z,65.60
2022-08-14T08:02:20.618Z,65.54
2022-08-14T08:04:55.359Z,65.55
2022-08-14T08:07:31.338Z,64.57
2022-08-14T08:10:46.320Z,67.64
2022-08-14T08:13:16.105Z,68.63
2022-08-14T08:15:46.877Z,67.44
2022-08-14T08:18:27.305Z,65.42
2022-08-14T08:20:59.231Z,67.07
2022-08-14T08:23:40.652Z,69.73
2022-08-14T08:26:19.155Z,65.45
2022-08-14T08:28:59.449Z,66.07
2022-08-14T08:31:32.894Z,66.87
2022-08-14T08:34:06.543Z,65.14
2022-08-14T08:36:42.033Z,63.82
2022-08-14T08:39:22.176Z,64.65
2022-08-14T08:41:53.752Z,65.11
2022-08-14T08:44:32.891Z,66.96
2022-08-14T08:47:06.504Z,67.11
2022-08-14T08:49:52.951Z,63.50
2022-08-14T08:52:31.429Z,68.21
2022-08-14T08:55:04.934Z,67.93
2022-08-14T08:57:37.986Z,66.62
2022-08-14T09:00:25.394Z,69.92
2022-08-14T09:03:03.309Z,63.26
2022-08-14T09:05:35.294Z,65.32
2022-08-14T09:08:26.525Z,65.55
2022-08-14T09:11:19.857Z,67.74
2022-08-14T09:13:53.686Z,67.72
2022-08-14T09:16:25.849Z,68.13
2022-08-14T09:18:55.030Z,69.65
2022-08-14T09:21:24.099Z,68.98
2022-08-14T09:24:28.617Z,66.77
2022-08-14T09:26:49.507Z,61.74
2022-08-14T09:29:22.832Z,68.31
2022-08-14T09:31:58.051Z,68.74
2022-08-14T09:34:57.724Z,66.88
2022-08-14T09:37:26.584Z,60.01
2022-08-14T09:40:16.673Z,59.22
2022-08-14T09:43:10.427Z,56.56
2022-08-14T09:45:52.957Z,63.64
2022-08-14T09:48:27.554Z,58.33
2022-08-14T09:54:18.741Z,59.32
2022-08-14T09:56:46.316Z,60.52
2022-08-14T09:59:33.715Z,60.27
2022-08-14T10:02:07.937Z,58.03
2022-08-14T10:04:41.234Z,59.51
2022-08-14T10:07:14.285Z,59.55
2022-08-14T10:09:59.515Z,56.42
2022-08-14T10:12:45.164Z,58.61
2022-08-14T10:15:25.378Z,57.29
2022-08-14T10:18:17.636Z,59.54
2022-08-14T10:21:10.813Z,58.77
2022-08-14T10:23:52.384Z,59.37
2022-08-14T10:26:23.108Z,60.05
2022-08-14T10:29:33.637Z,59.72
2022-08-14T10:32:03.219Z,59.26
2022-08-14T10:34:46.811Z,63.84
2022-08-14T10:37:23.653Z,62.42
2022-08-14T10:40:10.674Z,62.78
2022-08-14T10:42:50.231Z,63.67
2022-08-14T10:45:24.384Z,64.65
2022-08-14T10:48:09.429Z,65.24
2022-08-14T10:50:49.809Z,65.69
2022-08-14T10:53:29.141Z,64.50
2022-08-14T10:56:04.593Z,65.67
2022-08-14T10:58:34.490Z,65.80
2022-08-14T11:01:06.257Z,66.58
2022-08-14T11:03:55.996Z,66.79
2022-08-14T11:06:27.214Z,66.33
2022-08-14T11:08:56.368Z,66.46
2022-08-14T11:11:37.092Z,65.60
2022-08-14T11:14:09.284Z,65.18
2022-08-14T11:16:40.768Z,65.27
2022-08-14T11:19:11.137Z,66.14
2022-08-14T11:21:45.816Z,65.18
2022-08-14T11:24:55.159Z,65.30
2022-08-14T11:27:06.218Z,65.10
2022-08-14T11:29:36.331Z,65.92
2022-08-14T11:32:07.131Z,66.94
2022-08-14T11:34:38.376Z,66.71
2022-08-14T11:37:18.158Z,67.02
2022-08-14T11:39:51.478Z,65.41
2022-08-14T11:42:58.038Z,65.88
2022-08-14T11:45:18.721Z,66.52
2022-08-14T11:48:13.176Z,64.95
2022-08-14T11:50:37.947Z,65.42
2022-08-14T11:53:23.008Z,64.25
2022-08-14T11:56:03.793Z,65.13
2022-08-14T11:58:37.635Z,65.43
2022-08-14T12:01:09.722Z,64.33
2022-08-14T12:03:57.037Z,63.22
2022-08-14T12:06:39.238Z,62.81
2022-08-14T12:09:14.796Z,64.92
2022-08-14T12:11:47.440Z,65.88
2022-08-14T12:14:34.600Z,64.05
2022-08-14T12:17:12.055Z,64.96
2022-08-14T12:19:51.113Z,66.43
2022-08-14T12:22:42.282Z,67.41
2022-08-14T12:25:20.366Z,68.23
2022-08-14T12:27:53.273Z,67.69
2022-08-14T12:30:44.223Z,69.12
2022-08-14T12:33:33.976Z,69.50
2022-08-14T12:36:06.038Z,67.95
2022-08-14T12:38:48.679Z,69.57
2022-08-14T12:41:28.018Z,69.70
2022-08-14T12:44:02.875Z,70.95
2022-08-14T12:46:43.698Z,71.68
2022-08-14T12:49:17.741Z,69.14
2022-08-14T12:52:12.319Z,70.05
2022-08-14T12:54:56.089Z,66.97
2022-08-14T12:57:37.487Z,68.30
2022-08-14T13:00:23.017Z,68.76
2022-08-14T13:02:55.238Z,69.28
2022-08-14T13:05:27.426Z,68.99
2022-08-14T13:07:59.058Z,68.29
2022-08-14T13:10:47.218Z,68.60
2022-08-14T13:13:19.007Z,68.80
2022-08-14T13:15:57.462Z,68.96
2022-08-14T13:18:30.106Z,69.34
2022-08-14T13:21:04.324Z,69.37
2022-08-14T13:23:36.216Z,67.19
2022-08-14T13:26:05.191Z,68.46
2022-08-14T13:29:00.474Z,68.32
2022-08-14T13:31:29.933Z,69.06
2022-08-14T13:34:00.729Z,68.81
2022-08-14T13:36:54.656Z,69.10
2022-08-14T13:39:21.216Z,68.28
2022-08-14T13:41:55.643Z,65.98
2022-08-14T13:44:27.528Z,65.56
2022-08-14T13:46:55.734Z,65.91
2022-08-14T13:49:24.604Z,66.46
2022-08-14T13:51:59.335Z,65.87
2022-08-14T13:54:32.849Z,66.34
2022-08-14T13:57:03.794Z,65.75
2022-08-14T13:59:38.016Z,65.16
2022-08-14T14:02:08.074Z,63.74
2022-08-14T14:04:43.267Z,64.57
2022-08-14T14:07:23.340Z,63.94
2022-08-14T14:09:56.431Z,64.59
2022-08-14T14:12:37.898Z,65.52
2022-08-14T14:15:12.482Z,66.62
2022-08-14T14:17:44.361Z,67.29
2022-08-14T14:20:34.373Z,64.16
2022-08-14T14:23:09.734Z,64.43
2022-08-14T14:25:51.481Z,63.83
2022-08-14T14:28:31.832Z,65.29
2022-08-14T14:31:06.878Z,64.96
2022-08-14T14:33:51.613Z,65.12
2022-08-14T14:36:23.602Z,65.22
2022-08-14T14:39:08.005Z,66.13
2022-08-14T14:41:44.104Z,66.40
2022-08-14T14:44:15.802Z,66.56
2022-08-14T14:46:51.029Z,66.80
2022-08-14T14:49:31.775Z,66.86
2022-08-14T14:52:23.283Z,67.20
2022-08-14T14:54:59.380Z,66.59
2022-08-14T14:57:35.049Z,66.27
2022-08-14T15:00:19.503Z,65.44
2022-08-14T15:02:53.343Z,64.45
2022-08-14T15:05:28.442Z,64.93
2022-08-14T15:07:56.450Z,66.37
2022-08-14T15:10:26.998Z,65.95
2022-08-14T15:13:04.029Z,65.38
2022-08-14T15:15:36.827Z,66.05
2022-08-14T15:18:36.253Z,67.00
2022-08-14T15:21:01.397Z,66.69
2022-08-14T15:23:43.891Z,66.39
2022-08-14T15:26:23.398Z,66.40
2022-08-14T15:29:02.723Z,64.95
2022-08-14T15:31:36.438Z,65.07
2022-08-14T15:34:46.111Z,65.13
2022-08-14T15:44:58.283Z,65.10
2022-08-14T15:47:33.022Z,64.62
2022-08-14T15:50:05.927Z,64.81
2022-08-14T15:52:37.213Z,64.61
2022-08-14T15:55:13.008Z,64.80
2022-08-14T15:58:02.472Z,65.27
2022-08-14T16:00:55.152Z,65.51
2022-08-14T16:03:27.612Z,65.62
2022-08-14T16:06:11.051Z,65.34
2022-08-14T16:08:46.482Z,65.10
2022-08-14T16:11:19.367Z,65.53
2022-08-14T16:13:49.184Z,65.67
2022-08-14T16:16:51.024Z,65.56
2022-08-14T16:19:19.455Z,65.44
2022-08-14T16:22:02.060Z,65.46
2022-08-14T16:25:00.059Z,65.71
2022-08-14T16:27:41.205Z,65.69
2022-08-14T16:30:20.750Z,65.82
2022-08-14T16:32:59.362Z,65.30
2022-08-14T16:35:42.574Z,64.69
2022-08-14T16:38:45.688Z,64.31
2022-08-14T16:41:23.183Z,63.97
2022-08-14T16:43:58.904Z,63.92
2022-08-14T16:46:31.587Z,63.53
2022-08-14T16:49:02.700Z,63.70
2022-08-14T16:51:34.974Z,63.33
2022-08-14T16:54:20.694Z,63.40
2022-08-14T16:57:22.634Z,62.80
2022-08-14T16:59:57.077Z,62.45
2022-08-14T17:02:45.025Z,61.78
2022-08-14T17:05:29.026Z,60.94
2022-08-14T17:08:07.279Z,60.93
2022-08-14T17:10:51.631Z,61.02
2022-08-14T17:13:21.113Z,60.21
2022-08-14T17:16:24.948Z,59.36
2022-08-14T17:19:00.655Z,59.60
2022-08-14T17:21:41.562Z,59.49
2022-08-14T17:24:55.881Z,59.68
2022-08-14T17:27:03.989Z,59.34
2022-08-14T17:29:57.573Z,59.80
2022-08-14T17:32:44.478Z,59.40
2022-08-14T17:35:57.578Z,59.20
2022-08-14T17:38:38.621Z,59.10
2022-08-14T17:41:23.531Z,58.74
2022-08-14T17:46:43.682Z,59.00
2022-08-14T17:49:17.990Z,59.61
2022-08-14T17:52:17.082Z,59.99
2022-08-14T17:54:53.000Z,59.16
2022-08-14T17:57:30.507Z,59.17
2022-08-14T18:00:05.284Z,59.80
2022-08-14T18:02:34.090Z,59.74
2022-08-14T18:05:03.076Z,59.93
2022-08-14T18:07:59.320Z,59.69
2022-08-14T18:10:51.882Z,59.88
2022-08-14T18:13:10.843Z,59.41
2022-08-14T18:15:41.555Z,59.50
2022-08-14T18:18:11.989Z,59.70
2022-08-14T18:21:42.736Z,59.83
2022-08-14T18:23:30.621Z,59.89
2022-08-14T18:26:00.600Z,60.18
2022-08-14T18:28:51.619Z,59.91
2022-08-14T18:31:26.081Z,59.37
2022-08-14T18:34:31.081Z,58.69
2022-08-14T18:37:18.000Z,59.25
2022-08-14T18:40:02.036Z,59.85
2022-08-14T18:42:36.125Z,60.17
2022-08-14T18:45:15.667Z,60.35
2022-08-14T18:48:16.152Z,59.98
2022-08-14T18:50:54.041Z,60.31
2022-08-14T18:53:25.455Z,60.31
2022-08-14T18:56:09.536Z,60.48
2022-08-14T18:58:49.251Z,60.54
2022-08-14T19:01:30.472Z,60.60
2022-08-14T19:04:01.516Z,60.98
2022-08-14T19:06:38.205Z,61.09
2022-08-14T19:09:06.287Z,60.56
2022-08-14T19:11:46.479Z,60.56
2022-08-14T19:14:46.137Z,60.51
2022-08-14T19:17:42.304Z,61.50
2022-08-14T19:20:11.040Z,61.59
2022-08-14T19:22:40.984Z,61.72
2022-08-14T19:25:12.204Z,62.14
2022-08-14T19:27:46.512Z,62.74
2022-08-14T19:30:20.353Z,63.47
2022-08-14T19:32:56.072Z,64.27
2022-08-14T19:35:49.376Z,64.51
2022-08-14T19:38:52.211Z,64.52
2022-08-14T19:41:23.178Z,64.13
2022-08-14T19:43:57.031Z,63.02
2022-08-14T19:46:38.184Z,62.74
2022-08-14T19:50:24.379Z,62.85
2022-08-14T19:52:23.127Z,62.30
2022-08-14T19:54:53.625Z,62.31
2022-08-14T19:57:25.997Z,62.13
2022-08-14T20:00:28.082Z,62.49
2022-08-14T20:03:10.978Z,62.79
2022-08-14T20:05:45.399Z,62.44
2022-08-14T20:11:01.367Z,62.60
2022-08-14T20:12:00.656Z,62.42
2022-08-14T20:14:28.130Z,62.64
2022-08-14T20:17:06.323Z,62.67
2022-08-14T20:19:37.937Z,62.62
2022-08-14T20:22:36.537Z,62.58
2022-08-14T20:25:45.594Z,62.00
2022-08-14T20:28:32.234Z,63.04
2022-08-14T20:31:17.797Z,62.85
2022-08-14T20:34:24.280Z,63.12
2022-08-14T20:37:04.697Z,62.99
2022-08-14T20:39:54.749Z,63.02
2022-08-14T20:42:49.419Z,63.32
2022-08-14T20:45:29.136Z,63.71
2022-08-14T20:48:01.686Z,63.68
2022-08-14T20:50:36.691Z,63.87
2022-08-14T20:53:35.475Z,64.42
2022-08-14T20:56:28.928Z,64.59
2022-08-14T20:58:58.908Z,64.83
2022-08-14T21:01:33.118Z,65.37
2022-08-14T21:04:05.029Z,65.44
2022-08-14T21:07:24.480Z,65.75
2022-08-14T21:10:03.320Z,65.68
2022-08-14T21:12:33.646Z,65.74
2022-08-14T21:15:11.043Z,66.15
2022-08-14T21:17:41.579Z,66.48
2022-08-14T21:20:25.527Z,66.33
2022-08-14T21:22:56.594Z,66.68
2022-08-14T21:25:31.484Z,66.96
2022-08-14T21:28:04.211Z,66.94
2022-08-14T21:30:51.566Z,66.65
2022-08-14T21:33:21.622Z,66.45
2022-08-14T21:35:54.953Z,66.14
2022-08-14T21:38:34.301Z,65.80
2022-08-14T21:41:42.156Z,65.81
2022-08-14T21:44:18.120Z,65.96
2022-08-14T21:46:54.885Z,65.69
2022-08-14T21:49:33.834Z,65.35
2022-08-14T21:52:51.584Z,65.17
2022-08-14T21:55:09.395Z,65.33
2022-08-14T21:57:56.143Z,65.23
2022-08-14T22:00:35.176Z,64.90
2022-08-14T22:03:09.089Z,64.89
2022-08-14T22:05:39.283Z,64.48
2022-08-14T22:08:12.407Z,64.87
2022-08-14T22:10:46.531Z,64.78
2022-08-14T22:13:19.280Z,64.87
2022-08-14T22:15:50.057Z,65.10
2022-08-14T22:18:21.490Z,65.00
2022-08-14T22:20:53.454Z,65.15
2022-08-14T22:23:24.031Z,64.22
2022-08-14T22:25:55.416Z,64.24
2022-08-14T22:28:33.109Z,62.68
2022-08-14T22:31:10.673Z,62.56
2022-08-14T22:33:40.531Z,62.43
2022-08-14T22:36:34.328Z,62.50
2022-08-14T22:40:16.893Z,62.56
2022-08-14T22:42:23.037Z,61.95
2022-08-14T22:44:56.442Z,61.56
2022-08-14T22:47:40.566Z,61.52
2022-08-14T22:50:28.729Z,61.04
2022-08-14T22:52:59.948Z,61.27
2022-08-14T22:55:28.248Z,61.15
2022-08-14T22:57:55.843Z,61.08
2022-08-14T23:00:30.029Z,60.70
2022-08-14T23:03:01.921Z,61.24
2022-08-14T23:05:40.303Z,61.69
2022-08-14T23:09:00.011Z,61.82
2022-08-14T23:11:10.591Z,61.77
2022-08-14T23:13:40.823Z,61.90
2022-08-14T23:16:19.883Z,62.53
2022-08-14T23:18:54.123Z,62.66
2022-08-14T23:21:24.383Z,62.37
2022-08-14T23:23:57.281Z,62.74
2022-08-14T23:26:48.737Z,62.57
2022-08-14T23:29:17.970Z,62.34
2022-08-14T23:31:48.114Z,62.50
2022-08-14T23:34:21.413Z,62.62
2022-08-14T23:36:55.467Z,63.36
2022-08-14T23:39:30.134Z,63.48
2022-08-14T23:42:04.181Z,63.23
2022-08-14T23:44:35.180Z,63.04
2022-08-14T23:47:11.734Z,62.68
2022-08-14T23:50:03.703Z,61.22
2022-08-14T23:52:50.781Z,61.35
2022-08-14T23:55:29.726Z,61.18
2022-08-14T23:57:59.343Z,61.33
